Time;durP1;ratioP1;P1;durP2;ratioP2;P2;SDS_P1;SDS_P2;PMS_P1;PMS_P2;Temp;Humidity;BMP_temperature;BMP_pressure;BME280_temperature;BME280_humidity;BME280_pressure;Samples;Min_cycle;Max_cycle;Signal;HPM_P1;HPM_P2
2022/07/25 00:01:25;;;;;;;;;11.75;11.75;;;;;27.98;40.64;100441.19;5054780;28;46905;-61
2022/07/25 00:03:50;;;;;;;;;7.75;7.75;;;;;27.97;40.86;100436.75;5056089;28;45867;-62
2022/07/25 00:06:15;;;;;;;;;14.50;12.75;;;;;27.94;40.78;100434.44;5056343;28;46031;-63
2022/07/25 00:08:41;;;;;;;;;13.00;13.00;;;;;27.90;40.71;100424.97;5056232;28;45763;-60
2022/07/25 00:11:07;;;;;;;;;10.25;10.25;;;;;27.82;40.96;100419.66;5055756;28;46108;-60
2022/07/25 00:13:32;;;;;;;;;14.75;10.00;;;;;27.82;40.71;100415.03;5055693;28;45432;-61
2022/07/25 00:15:58;;;;;;;;;12.75;12.00;;;;;27.71;40.97;100401.09;5056035;28;45315;-61
2022/07/25 00:18:23;;;;;;;;;14.25;12.75;;;;;27.80;40.78;100410.81;5055954;28;45362;-61
2022/07/25 00:20:48;;;;;;;;;12.75;9.00;;;;;27.78;41.07;100413.75;5056011;28;45407;-61
2022/07/25 00:23:14;;;;;;;;;17.25;13.75;;;;;27.72;41.50;100408.25;5055947;28;45230;-63
2022/07/25 00:25:39;;;;;;;;;15.00;14.25;;;;;27.68;41.40;100396.88;5056171;28;45427;-66
2022/07/25 00:28:05;;;;;;;;;12.50;11.50;;;;;27.67;41.53;100394.38;5056031;28;45275;-61
2022/07/25 00:30:31;;;;;;;;;14.25;12.50;;;;;27.66;41.88;100392.69;5059717;28;46371;-61
2022/07/25 00:32:56;;;;;;;;;13.00;12.25;;;;;27.63;41.91;100389.28;5058085;28;45405;-62
2022/07/25 00:35:21;;;;;;;;;13.50;12.50;;;;;27.65;41.47;100399.19;5059344;28;45323;-62
2022/07/25 00:37:47;;;;;;;;;14.00;13.50;;;;;27.58;41.87;100397.22;5059561;28;45232;-65
2022/07/25 00:40:12;;;;;;;;;12.50;12.50;;;;;27.59;41.97;100401.63;5059461;28;46312;-61
2022/07/25 00:42:38;;;;;;;;;14.00;13.25;;;;;27.56;41.54;100390.28;5057567;28;45190;-60
2022/07/25 00:45:04;;;;;;;;;10.50;10.50;;;;;27.58;41.76;100382.72;5059090;28;45348;-60
2022/07/25 00:47:29;;;;;;;;;13.25;13.00;;;;;27.47;41.73;100373.19;5059405;28;45596;-62
2022/07/25 00:49:55;;;;;;;;;13.00;13.00;;;;;27.51;41.82;100379.97;5058654;28;46617;-61
2022/07/25 00:52:20;;;;;;;;;17.50;12.50;;;;;27.42;42.10;100370.22;5058785;28;45375;-60
2022/07/25 00:54:46;;;;;;;;;13.00;11.25;;;;;27.51;42.00;100374.50;5059125;28;45322;-61
2022/07/25 00:57:11;;;;;;;;;14.50;13.50;;;;;27.54;42.49;100379.56;5059558;28;45522;-61
2022/07/25 00:59:36;;;;;;;;;12.25;12.25;;;;;27.53;42.25;100377.88;5058751;28;46286;-61
2022/07/25 01:02:02;;;;;;;;;15.75;15.75;;;;;27.52;42.26;100378.91;5059146;28;45417;-64
2022/07/25 01:04:28;;;;;;;;;17.00;15.25;;;;;27.52;41.85;100392.56;5058908;28;45468;-63
2022/07/25 01:06:54;;;;;;;;;15.50;15.25;;;;;27.38;42.72;100392.69;5059361;28;45551;-60
2022/07/25 01:09:19;;;;;;;;;13.25;12.25;;;;;27.39;42.62;100402.56;5058737;28;46102;-60
2022/07/25 01:11:45;;;;;;;;;15.75;14.50;;;;;27.39;42.33;100419.81;5058670;28;45365;-62
2022/07/25 01:14:10;;;;;;;;;11.00;11.00;;;;;27.33;42.69;100418.69;5058776;28;45429;-61
2022/07/25 01:16:36;;;;;;;;;11.25;8.50;;;;;27.35;42.17;100413.06;5057335;28;45349;-64
2022/07/25 01:19:02;;;;;;;;;13.00;13.00;;;;;27.30;42.96;100410.06;5058499;27;45282;-62
2022/07/25 01:21:27;;;;;;;;;11.50;11.50;;;;;27.22;42.74;100407.50;5058490;28;45238;-63
2022/07/25 01:23:53;;;;;;;;;11.75;11.75;;;;;27.25;42.39;100412.56;5058435;28;45266;-61
2022/07/25 01:26:18;;;;;;;;;13.25;12.50;;;;;27.14;42.45;100404.91;5058903;28;45243;-61
2022/07/25 01:28:44;;;;;;;;;11.00;11.00;;;;;27.13;43.23;100408.69;5058521;28;45289;-64
2022/07/25 01:31:09;;;;;;;;;12.25;12.25;;;;;27.06;43.40;100396.84;5057269;28;45942;-61
2022/07/25 01:33:34;;;;;;;;;10.25;10.25;;;;;27.08;42.94;100400.22;5058183;28;45330;-63
2022/07/25 01:36:00;;;;;;;;;13.00;12.00;;;;;27.10;43.47;100415.38;5059493;28;45298;-65
2022/07/25 01:38:26;;;;;;;;;12.75;12.50;;;;;27.09;43.34;100412.84;5058570;28;45419;-63
2022/07/25 01:40:51;;;;;;;;;11.50;8.50;;;;;26.99;42.93;100408.53;5055993;28;45749;-63
2022/07/25 01:43:17;;;;;;;;;11.75;11.75;;;;;27.00;43.21;100409.38;5058487;28;45409;-63
2022/07/25 01:45:42;;;;;;;;;12.00;11.50;;;;;26.98;43.03;100406.84;5058293;28;45527;-63
2022/07/25 01:48:08;;;;;;;;;11.00;11.00;;;;;26.92;43.06;100404.91;5057766;28;46495;-62
2022/07/25 01:50:33;;;;;;;;;11.50;11.50;;;;;26.82;43.28;100390.75;5057150;28;45657;-61
2022/07/25 01:52:58;;;;;;;;;12.00;11.00;;;;;26.79;42.90;100396.59;5058116;28;45414;-62
2022/07/25 01:55:24;;;;;;;;;17.25;11.75;;;;;26.78;43.59;100397.63;5056923;28;45449;-61
2022/07/25 01:57:49;;;;;;;;;9.50;9.50;;;;;26.71;43.35;100394.03;5056551;28;46932;-61
2022/07/25 02:00:15;;;;;;;;;12.50;10.75;;;;;26.66;43.49;100401.94;5056497;28;45902;-63
2022/07/25 02:02:42;;;;;;;;;14.00;12.25;;;;;26.58;43.91;100399.34;5058073;28;45347;-64
2022/07/25 02:05:09;;;;;;;;;7.75;7.50;;;;;26.55;43.93;100399.72;5058202;27;45280;-62
2022/07/25 02:07:35;;;;;;;;;9.50;8.25;;;;;26.51;44.09;100403.88;5058090;28;46034;-61
2022/07/25 02:10:01;;;;;;;;;10.00;10.00;;;;;26.36;44.22;100391.16;5057773;28;45399;-59
2022/07/25 02:12:27;;;;;;;;;12.00;10.25;;;;;26.36;44.18;100391.16;5054869;28;45342;-63
2022/07/25 02:14:52;;;;;;;;;7.00;7.00;;;;;26.32;44.67;100398.00;5057756;28;45452;-62
2022/07/25 02:17:17;;;;;;;;;10.50;10.00;;;;;26.16;45.02;100384.59;5057324;28;46379;-61
2022/07/25 02:19:43;;;;;;;;;9.00;9.00;;;;;26.16;45.18;100398.22;5057695;28;45452;-60
2022/07/25 02:22:09;;;;;;;;;12.25;9.75;;;;;26.10;45.45;100401.72;5057710;28;45327;-61
2022/07/25 02:24:35;;;;;;;;;11.50;9.50;;;;;26.06;45.43;100400.41;5058167;28;45417;-62
2022/07/25 02:27:02;;;;;;;;;9.00;9.00;;;;;26.00;44.92;100395.72;5057125;28;45275;-63
2022/07/25 02:29:28;;;;;;;;;4.00;3.50;;;;;25.92;45.14;100401.28;5057211;28;45227;-62
2022/07/25 02:31:53;;;;;;;;;8.25;8.25;;;;;25.82;45.85;100396.97;5057498;28;45358;-63
2022/07/25 02:34:19;;;;;;;;;9.25;7.75;;;;;25.75;45.17;100401.47;5057375;28;45611;-61
2022/07/25 02:36:45;;;;;;;;;7.50;6.00;;;;;25.66;45.58;100401.75;5057361;28;45438;-60
2022/07/25 02:39:11;;;;;;;;;7.50;7.50;;;;;25.54;45.36;100395.94;5055743;28;45469;-61
2022/07/25 02:41:36;;;;;;;;;8.75;6.25;;;;;25.43;45.41;100397.22;5056562;28;45441;-63
2022/07/25 02:44:03;;;;;;;;;7.00;7.00;;;;;25.29;45.56;100392.63;5057471;28;45440;-63
2022/07/25 02:46:28;;;;;;;;;6.25;4.50;;;;;25.25;45.69;100403.03;5056960;28;46100;-61
2022/07/25 02:48:53;;;;;;;;;8.00;7.00;;;;;25.08;46.29;100396.06;5057848;28;45476;-59
2022/07/25 02:51:19;;;;;;;;;7.25;5.50;;;;;25.01;46.68;100406.00;5057248;28;45491;-61
2022/07/25 02:53:44;;;;;;;;;8.00;7.00;;;;;24.89;46.81;100396.56;5057581;28;45442;-63
2022/07/25 02:56:10;;;;;;;;;6.50;6.50;;;;;24.87;46.37;100417.63;5056840;28;45593;-60
2022/07/25 02:58:35;;;;;;;;;5.00;4.75;;;;;24.78;46.67;100400.56;5057161;28;45182;-63
2022/07/25 03:01:00;;;;;;;;;5.00;5.00;;;;;24.76;46.60;100407.22;5057025;28;45356;-63
2022/07/25 03:03:26;;;;;;;;;9.00;8.00;;;;;24.61;46.71;100399.84;5056085;28;45527;-61
2022/07/25 03:05:51;;;;;;;;;7.00;7.00;;;;;24.58;46.96;100416.50;5056987;28;46080;-63
2022/07/25 03:08:17;;;;;;;;;6.75;6.75;;;;;24.35;46.62;100411.06;5055820;28;45275;-62
2022/07/25 03:10:42;;;;;;;;;9.00;6.00;;;;;24.30;47.12;100408.03;5056915;28;45161;-61
2022/07/25 03:13:08;;;;;;;;;7.50;7.50;;;;;24.29;47.12;100405.47;5057507;28;45264;-60
2022/07/25 03:15:33;;;;;;;;;5.50;5.50;;;;;24.27;47.13;100418.38;5056542;28;45407;-61
2022/07/25 03:17:59;;;;;;;;;7.25;7.25;;;;;24.23;47.31;100417.06;5056977;28;45313;-61
2022/07/25 03:20:24;;;;;;;;;5.00;5.00;;;;;24.07;46.89;100407.94;5055530;27;45314;-60
2022/07/25 03:22:50;;;;;;;;;7.75;6.25;;;;;24.05;47.19;100415.44;5057021;28;45525;-63
2022/07/25 03:25:15;;;;;;;;;4.50;4.25;;;;;24.04;46.80;100419.16;5056609;28;45576;-62
2022/07/25 03:27:40;;;;;;;;;5.00;5.00;;;;;23.98;47.47;100419.91;5055814;28;45437;-61
2022/07/25 03:30:07;;;;;;;;;9.25;7.75;;;;;23.86;47.27;100415.88;5056850;28;45559;-64
2022/07/25 03:32:32;;;;;;;;;4.00;4.00;;;;;23.84;46.94;100417.94;5055512;28;45598;-59
2022/07/25 03:34:57;;;;;;;;;6.00;6.00;;;;;23.83;46.95;100421.66;5054988;28;46458;-62
2022/07/25 03:37:23;;;;;;;;;8.50;7.00;;;;;23.82;46.34;100419.94;5056448;28;45378;-60
2022/07/25 03:39:48;;;;;;;;;3.67;3.67;;;;;23.70;46.33;100438.50;5056625;28;45503;-62
2022/07/25 03:42:14;;;;;;;;;2.00;2.00;;;;;23.58;47.02;100439.91;5056576;28;45642;-60
2022/07/25 03:44:39;;;;;;;;;7.67;6.00;;;;;23.53;46.91;100447.66;5056221;28;46544;-62
2022/07/25 03:47:05;;;;;;;;;4.50;4.50;;;;;23.47;46.91;100443.78;5055112;28;45429;-64
2022/07/25 03:49:30;;;;;;;;;4.67;4.67;;;;;23.46;46.71;100458.38;5056599;28;45409;-61
2022/07/25 03:51:55;;;;;;;;;7.00;3.50;;;;;23.43;46.50;100453.28;5056660;28;45305;-62
2022/07/25 03:54:22;;;;;;;;;3.00;3.00;;;;;23.49;45.82;100446.31;5055938;28;45411;-61
2022/07/25 03:56:49;;;;;;;;;5.00;5.00;;;;;23.35;45.64;100466.88;5056244;28;45299;-62
2022/07/25 03:59:17;;;;;;;;;4.33;4.33;;;;;23.30;46.49;100471.09;5056164;28;45531;-64
2022/07/25 04:01:45;;;;;;;;;5.00;3.00;;;;;23.31;45.76;100470.97;5056647;28;45653;-60
2022/07/25 04:04:11;;;;;;;;;4.00;3.00;;;;;23.24;45.30;100472.66;5055287;28;45427;-62
2022/07/25 04:06:37;;;;;;;;;2.00;2.00;;;;;23.17;46.49;100474.34;5056252;28;45433;-61
2022/07/25 04:09:03;;;;;;;;;4.50;4.50;;;;;23.15;46.12;100479.09;5056094;28;45283;-62
2022/07/25 04:11:29;;;;;;;;;2.67;2.67;;;;;23.11;46.28;100477.75;5056187;28;45280;-61
2022/07/25 04:13:56;;;;;;;;;2.25;2.25;;;;;23.17;46.59;100479.75;5055700;28;46202;-63
2022/07/25 04:16:23;;;;;;;;;12.00;6.67;;;;;23.12;47.08;100466.72;5055821;28;45337;-62
2022/07/25 04:18:49;;;;;;;;;3.67;3.00;;;;;23.10;46.86;100463.34;5055857;28;45352;-60
2022/07/25 04:21:15;;;;;;;;;2.75;2.00;;;;;23.10;47.07;100473.34;5056239;28;45400;-63
2022/07/25 04:23:40;;;;;;;;;2.33;2.33;;;;;23.09;47.48;100477.06;5056837;28;46484;-62
2022/07/25 04:26:06;;;;;;;;;2.50;2.00;;;;;23.08;47.25;100480.81;5055772;28;45477;-61
2022/07/25 04:28:32;;;;;;;;;2.00;2.00;;;;;22.92;47.92;100487.91;5056060;28;45454;-62
2022/07/25 04:30:57;;;;;;;;;2.00;2.00;;;;;22.98;48.23;100485.53;5054788;28;45577;-66
2022/07/25 04:33:23;;;;;;;;;4.25;3.00;;;;;22.95;48.17;100490.28;5055347;28;45618;-62
2022/07/25 04:35:48;;;;;;;;;2.50;1.00;;;;;22.78;48.55;100488.53;5055605;28;45293;-63
2022/07/25 04:38:14;;;;;;;;;3.00;3.00;;;;;22.62;49.25;100497.47;5055924;28;45414;-62
2022/07/25 04:40:40;;;;;;;;;10.33;5.33;;;;;22.63;49.43;100499.16;5055943;28;45537;-60
2022/07/25 04:43:05;;;;;;;;;3.00;3.00;;;;;22.69;49.10;100497.69;5055126;28;46067;-62
2022/07/25 04:45:33;;;;;;;;;2.00;2.00;;;;;22.71;49.24;100489.38;5055683;28;45390;-61
2022/07/25 04:47:58;;;;;;;;;3.00;2.00;;;;;22.70;48.96;100498.53;5055311;28;45392;-61
2022/07/25 04:50:24;;;;;;;;;2.67;2.67;;;;;22.68;49.47;100501.41;5054537;28;45509;-62
2022/07/25 04:52:49;;;;;;;;;1.00;1.00;;;;;22.74;49.10;100513.44;5055391;28;45331;-64
2022/07/25 04:55:15;;;;;;;;;3.33;2.00;;;;;22.72;49.51;100501.91;5055844;28;45394;-61
2022/07/25 04:57:40;;;;;;;;;3.67;1.00;;;;;22.69;49.54;100507.69;5055456;28;45346;-61
2022/07/25 05:00:08;;;;;;;;;3.67;2.00;;;;;22.57;50.81;100493.59;5055982;28;45221;-60
2022/07/25 05:02:34;;;;;;;;;2.00;2.00;;;;;22.48;50.88;100483.72;5071021;28;47139;-62
2022/07/25 05:04:59;;;;;;;;;3.00;1.67;;;;;22.48;51.33;100494.56;5055448;28;45219;-68
2022/07/25 05:07:25;;;;;;;;;2.00;2.00;;;;;22.37;51.22;100483.00;5055418;28;45318;-61
2022/07/25 05:09:51;;;;;;;;;2.00;1.00;;;;;22.53;51.72;100503.06;5055368;28;45469;-61
2022/07/25 05:12:16;;;;;;;;;5.67;2.67;;;;;22.49;52.07;100507.09;5055009;28;46138;-63
2022/07/25 05:14:41;;;;;;;;;2.00;2.00;;;;;22.41;51.67;100499.81;5055875;28;45441;-61
2022/07/25 05:17:07;;;;;;;;;10.67;8.33;;;;;22.34;52.18;100499.59;5058730;28;45359;-63
2022/07/25 05:19:32;;;;;;;;;4.50;4.00;;;;;22.43;52.23;100502.34;5059031;28;45511;-62
2022/07/25 05:21:58;;;;;;;;;2.25;1.75;;;;;22.46;52.62;100511.00;5058767;28;45462;-59
2022/07/25 05:24:23;;;;;;;;;2.00;2.00;;;;;22.50;52.07;100520.47;5057133;28;45316;-61
2022/07/25 05:26:49;;;;;;;;;3.00;3.00;;;;;22.49;52.45;100512.53;5057125;28;45441;-62
2022/07/25 05:29:15;;;;;;;;;3.25;2.00;;;;;22.42;52.65;100516.91;5058944;28;45405;-61
2022/07/25 05:31:40;;;;;;;;;2.75;2.00;;;;;22.35;53.58;100525.69;5058461;28;46164;-65
2022/07/25 05:34:06;;;;;;;;;10.67;8.00;;;;;22.33;53.26;100525.00;5058340;28;45334;-63
2022/07/25 05:36:32;;;;;;;;;3.00;3.00;;;;;22.43;52.52;100521.31;5058429;28;45366;-62
2022/07/25 05:38:57;;;;;;;;;2.00;2.00;;;;;22.40;53.10;100527.94;5058547;28;45700;-61
2022/07/25 05:41:23;;;;;;;;;2.33;2.33;;;;;22.28;53.00;100527.38;5057833;28;45344;-63
2022/07/25 05:43:51;;;;;;;;;7.33;4.00;;;;;22.42;53.21;100530.47;5058451;28;45325;-63
2022/07/25 05:46:17;;;;;;;;;2.00;2.00;;;;;22.45;53.53;100530.13;5058504;28;45363;-61
2022/07/25 05:48:42;;;;;;;;;2.75;2.75;;;;;22.42;53.09;100533.19;5058286;28;45674;-62
2022/07/25 05:51:08;;;;;;;;;2.25;2.25;;;;;22.48;52.74;100533.34;5057691;28;45397;-63
2022/07/25 05:53:34;;;;;;;;;3.00;3.00;;;;;22.32;53.71;100536.84;5057984;28;45290;-60
2022/07/25 05:55:59;;;;;;;;;2.00;1.00;;;;;22.25;53.82;100543.06;5058047;28;45523;-61
2022/07/25 05:58:24;;;;;;;;;2.00;2.00;;;;;22.29;54.39;100539.91;5058301;28;45422;-62
2022/07/25 06:00:50;;;;;;;;;3.67;3.67;;;;;22.23;54.19;100548.66;5057876;28;45411;-62
2022/07/25 06:03:17;;;;;;;;;4.00;3.00;;;;;22.15;54.80;100537.81;5058171;28;45243;-61
2022/07/25 06:05:43;;;;;;;;;2.00;2.00;;;;;22.19;54.51;100550.00;5058115;28;45378;-61
2022/07/25 06:08:09;;;;;;;;;1.67;1.67;;;;;22.24;53.97;100549.50;5056930;28;45692;-61
2022/07/25 06:10:34;;;;;;;;;2.33;2.33;;;;;22.35;54.65;100558.19;5056519;28;45251;-62
2022/07/25 06:12:59;;;;;;;;;4.33;3.33;;;;;22.30;54.26;100541.59;5057837;28;45339;-60
2022/07/25 06:15:25;;;;;;;;;3.00;3.00;;;;;22.41;53.88;100545.03;5056717;28;45336;-63
2022/07/25 06:17:51;;;;;;;;;4.00;2.00;;;;;22.42;53.25;100549.44;5058248;28;45339;-61
2022/07/25 06:20:16;;;;;;;;;3.00;3.00;;;;;22.40;53.50;100556.84;5056724;28;45291;-62
2022/07/25 06:22:42;;;;;;;;;4.33;2.67;;;;;22.33;54.05;100568.34;5057689;28;45393;-65
2022/07/25 06:25:08;;;;;;;;;14.33;10.00;;;;;22.35;54.19;100566.34;5056487;28;45339;-62
2022/07/25 06:27:34;;;;;;;;;3.00;2.00;;;;;22.34;53.46;100559.22;5057233;28;45531;-63
2022/07/25 06:30:01;;;;;;;;;3.00;2.50;;;;;22.30;53.97;100574.09;5057384;28;46507;-61
2022/07/25 06:32:26;;;;;;;;;5.33;3.67;;;;;22.26;54.59;100570.00;5057751;28;45362;-59
2022/07/25 06:34:52;;;;;;;;;3.00;2.67;;;;;22.30;53.83;100574.09;5057716;28;45284;-59
2022/07/25 06:37:17;;;;;;;;;1.00;1.00;;;;;22.40;53.86;100567.69;5058295;28;45569;-62
2022/07/25 06:39:43;;;;;;;;;5.00;3.00;;;;;22.43;53.99;100579.06;5057105;28;45300;-63
2022/07/25 06:42:08;;;;;;;;;2.50;2.50;;;;;22.37;54.25;100585.97;5057307;28;45339;-61
2022/07/25 06:44:34;;;;;;;;;3.25;3.25;;;;;22.45;54.45;100584.34;5057728;28;45163;-62
2022/07/25 06:47:00;;;;;;;;;1.33;0.33;;;;;22.29;54.67;100567.00;5057531;28;45225;-61
2022/07/25 06:49:25;;;;;;;;;2.25;2.25;;;;;22.17;54.93;100573.69;5056857;28;46236;-63
2022/07/25 06:51:51;;;;;;;;;2.00;2.00;;;;;22.29;55.53;100601.38;5057616;28;45401;-61
2022/07/25 06:54:17;;;;;;;;;1.00;1.00;;;;;22.26;55.87;100586.25;5055563;28;45332;-60
2022/07/25 06:56:43;;;;;;;;;4.00;3.00;;;;;22.23;56.11;100594.72;5057479;28;44978;-64
2022/07/25 06:59:09;;;;;;;;;3.50;3.50;;;;;22.16;55.58;100582.84;5055777;28;45448;-62
2022/07/25 07:01:34;;;;;;;;;4.00;4.00;;;;;22.21;56.64;100596.75;5057211;28;45509;-60
2022/07/25 07:04:00;;;;;;;;;2.67;2.67;;;;;22.26;55.96;100598.97;5057091;28;45347;-60
2022/07/25 07:06:27;;;;;;;;;3.75;3.25;;;;;22.25;55.79;100592.69;5057271;28;45283;-61
2022/07/25 07:08:53;;;;;;;;;3.67;3.67;;;;;22.35;55.83;100593.44;5055948;28;47041;-61
2022/07/25 07:11:18;;;;;;;;;5.00;5.00;;;;;22.55;55.47;100610.28;5057280;28;45821;-63
2022/07/25 07:13:43;;;;;;;;;3.00;3.00;;;;;22.53;55.05;100595.22;5056910;28;45311;-64
2022/07/25 07:16:09;;;;;;;;;4.00;3.00;;;;;22.64;55.03;100609.28;5057001;28;45481;-62
2022/07/25 07:18:36;;;;;;;;;2.67;2.00;;;;;22.69;54.61;100614.25;5056303;28;45346;-63
2022/07/25 07:21:02;;;;;;;;;4.00;2.50;;;;;22.48;55.45;100584.00;5056318;28;45482;-62
2022/07/25 07:23:27;;;;;;;;;5.33;4.00;;;;;22.64;54.99;100613.88;5056835;28;45358;-63
2022/07/25 07:25:53;;;;;;;;;5.00;3.33;;;;;22.64;54.78;100597.59;5057061;28;45379;-64
2022/07/25 07:28:18;;;;;;;;;5.00;4.00;;;;;22.72;53.93;100599.50;5056473;28;45953;-63
2022/07/25 07:30:43;;;;;;;;;3.25;3.00;;;;;22.77;54.37;100614.25;5056493;28;45390;-60
2022/07/25 07:33:09;;;;;;;;;11.67;5.00;;;;;22.75;54.82;100610.03;5056417;28;45830;-61
2022/07/25 07:35:34;;;;;;;;;3.50;3.50;;;;;22.86;54.46;100618.75;5056654;28;45683;-62
2022/07/25 07:38:00;;;;;;;;;3.00;2.75;;;;;22.92;54.28;100620.81;5056069;28;46286;-61
2022/07/25 07:40:25;;;;;;;;;3.00;3.00;;;;;22.90;53.67;100620.09;5054968;28;45371;-62
2022/07/25 07:42:51;;;;;;;;;2.50;2.50;;;;;22.93;54.02;100622.50;5056600;28;45362;-62
2022/07/25 07:45:22;;;;;;;;;4.00;3.00;;;;;22.95;54.54;100617.75;5056878;28;45167;-64
2022/07/25 07:47:49;;;;;;;;;4.00;2.25;;;;;23.01;53.39;100615.38;5057090;28;46349;-64
2022/07/25 07:50:17;;;;;;;;;4.67;3.00;;;;;23.00;54.02;100629.97;5056197;28;45437;-63
2022/07/25 07:52:44;;;;;;;;;2.50;2.50;;;;;23.04;54.00;100624.03;5055895;28;45283;-61
2022/07/25 07:57:55;;;;;;;;;2.75;2.00;;;;;23.13;54.09;100644.75;5056258;28;45311;-62
2022/07/25 08:00:21;;;;;;;;;2.50;2.50;;;;;23.16;54.49;100630.00;5072141;28;45482;-61
2022/07/25 08:02:50;;;;;;;;;9.67;8.00;;;;;23.23;54.01;100631.88;5056077;28;45429;-65
2022/07/25 08:05:23;;;;;;;;;2.75;2.75;;;;;23.30;53.99;100640.19;5056262;28;45488;-64
2022/07/25 08:07:50;;;;;;;;;4.75;3.75;;;;;23.37;53.49;100643.09;5055882;28;46080;-64
2022/07/25 08:10:18;;;;;;;;;3.00;3.00;;;;;23.40;53.63;100643.59;5056070;28;45387;-63
2022/07/25 08:12:44;;;;;;;;;1.00;1.00;;;;;23.40;53.35;100643.59;5055984;28;45339;-61
2022/07/25 08:15:09;;;;;;;;;1.25;1.25;;;;;23.46;53.55;100642.09;5056226;28;45195;-65
2022/07/25 08:17:35;;;;;;;;;1.00;1.00;;;;;23.56;53.55;100642.78;5055503;28;45330;-64
2022/07/25 08:20:06;;;;;;;;;2.00;2.00;;;;;23.71;53.23;100649.28;5055636;28;45418;-64
2022/07/25 08:22:40;;;;;;;;;2.00;2.00;;;;;23.97;53.07;100649.09;5056140;28;45254;-62
2022/07/25 08:25:11;;;;;;;;;1.50;1.50;;;;;24.09;52.45;100655.88;5056391;28;45557;-64
2022/07/25 08:27:37;;;;;;;;;2.75;1.50;;;;;24.26;52.33;100653.97;5055442;28;46955;-62
2022/07/25 08:30:04;;;;;;;;;3.00;3.00;;;;;24.39;52.12;100653.47;5055722;28;45464;-63
2022/07/25 08:32:30;;;;;;;;;3.00;2.50;;;;;24.72;51.43;100640.59;5055738;28;45319;-62
2022/07/25 08:34:56;;;;;;;;;1.75;1.75;;;;;25.24;50.20;100650.91;5056257;28;45255;-62
2022/07/25 08:37:22;;;;;;;;;1.50;1.50;;;;;25.69;48.89;100644.66;5055498;28;46259;-61
2022/07/25 08:39:49;;;;;;;;;2.20;1.80;;;;;25.96;48.11;100635.06;5055717;28;45170;-61
2022/07/25 08:42:14;;;;;;;;;3.75;2.50;;;;;26.27;47.64;100640.34;5054266;27;45452;-61
2022/07/25 08:44:43;;;;;;;;;2.00;2.00;;;;;26.46;47.09;100644.44;5055527;28;45322;-59
2022/07/25 08:47:09;;;;;;;;;2.50;2.50;;;;;26.60;47.05;100640.03;5055563;28;45541;-61
2022/07/25 08:49:35;;;;;;;;;8.75;6.00;;;;;26.72;46.90;100653.00;5056217;28;45393;-63
2022/07/25 08:52:02;;;;;;;;;2.00;2.00;;;;;26.87;46.27;100642.06;5059231;28;45255;-63
2022/07/25 08:54:30;;;;;;;;;1.20;1.20;;;;;26.95;46.18;100652.00;5059809;28;45243;-66
2022/07/25 08:56:55;;;;;;;;;2.80;2.80;;;;;27.00;46.25;100652.31;5059799;27;46966;-62
2022/07/25 08:59:21;;;;;;;;;2.50;2.00;;;;;27.08;46.03;100645.91;5059220;28;45477;-61
2022/07/25 09:01:46;;;;;;;;;1.50;1.50;;;;;27.11;45.50;100651.00;5059667;28;45348;-63
2022/07/25 09:04:12;;;;;;;;;1.00;1.00;;;;;27.16;45.48;100653.97;5059751;28;45659;-63
2022/07/25 09:06:48;;;;;;;;;2.75;2.75;;;;;27.07;45.55;100655.13;5057880;28;45462;-62
2022/07/25 09:09:14;;;;;;;;;2.40;2.40;;;;;26.99;45.54;100667.84;5058770;28;45489;-61
2022/07/25 09:11:39;;;;;;;;;2.00;2.00;;;;;26.83;46.28;100654.41;5058951;28;45429;-63
2022/07/25 09:14:10;;;;;;;;;1.25;1.25;;;;;26.75;46.18;100660.78;5057275;28;45849;-64
2022/07/25 09:16:42;;;;;;;;;3.00;1.80;;;;;26.60;46.14;100664.56;5058656;28;45710;-64
2022/07/25 09:19:16;;;;;;;;;2.80;1.40;;;;;26.49;46.65;100675.94;5058701;28;45269;-63
2022/07/25 09:21:43;;;;;;;;;2.20;1.00;;;;;26.34;46.76;100673.19;5059224;28;45230;-65
2022/07/25 09:24:21;;;;;;;;;0.60;0.60;;;;;26.32;46.91;100665.19;5059078;28;45628;-64
2022/07/25 09:26:46;;;;;;;;;2.00;2.00;;;;;26.50;46.93;100677.63;5058201;28;45424;-65
2022/07/25 09:29:16;;;;;;;;;8.00;5.00;;;;;26.52;46.93;100675.56;5058507;28;45490;-63
2022/07/25 09:31:41;;;;;;;;;4.00;2.00;;;;;26.61;46.41;100674.44;5074471;27;45414;-63
2022/07/25 09:34:08;;;;;;;;;1.75;1.75;;;;;26.56;46.08;100682.31;5058541;28;45316;-67
2022/07/25 09:36:34;;;;;;;;;3.00;2.00;;;;;26.54;45.66;100676.22;5058127;28;46767;-63
2022/07/25 09:39:01;;;;;;;;;3.75;2.25;;;;;26.52;46.07;100683.75;5058597;28;45223;-64
2022/07/25 09:41:35;;;;;;;;;1.80;1.80;;;;;26.51;45.92;100687.50;5057256;28;45429;-61
2022/07/25 09:44:00;;;;;;;;;1.50;1.00;;;;;26.40;46.10;100689.66;5058685;28;45212;-62
2022/07/25 09:46:30;;;;;;;;;3.00;3.00;;;;;26.37;46.15;100681.00;5058219;28;46302;-62
2022/07/25 09:48:57;;;;;;;;;2.00;2.00;;;;;26.43;46.10;100686.59;5058276;28;45410;-63
2022/07/25 09:51:25;;;;;;;;;2.00;2.00;;;;;26.39;45.57;100684.41;5058473;28;45287;-63
2022/07/25 09:53:51;;;;;;;;;3.75;2.00;;;;;26.55;45.72;100700.56;5058360;28;45165;-67
2022/07/25 09:56:16;;;;;;;;;1.25;1.25;;;;;26.77;45.41;100698.81;5057358;28;45397;-63
2022/07/25 09:58:45;;;;;;;;;3.00;3.00;;;;;27.16;44.73;100693.06;5058087;28;45355;-63
2022/07/25 10:01:16;;;;;;;;;6.00;3.00;;;;;27.48;44.23;100696.38;5056977;28;45407;-63
2022/07/25 10:03:48;;;;;;;;;1.50;1.50;;;;;27.61;44.44;100697.34;5058014;28;45355;-65
2022/07/25 10:06:19;;;;;;;;;3.80;2.20;;;;;27.72;44.22;100706.94;5058059;28;46213;-62
2022/07/25 10:08:46;;;;;;;;;3.60;3.60;;;;;27.71;43.53;100698.94;5058084;28;45541;-63
2022/07/25 10:11:23;;;;;;;;;2.20;2.20;;;;;27.71;43.48;100699.78;5058459;28;45528;-62
2022/07/25 10:13:49;;;;;;;;;2.00;2.00;;;;;27.82;42.89;100695.69;5058598;28;45522;-61
2022/07/25 10:16:17;;;;;;;;;1.25;1.25;;;;;27.74;43.16;100690.38;5058534;28;45289;-63
2022/07/25 10:18:51;;;;;;;;;2.00;2.00;;;;;27.78;42.65;100699.84;5058077;28;45389;-64
2022/07/25 10:21:17;;;;;;;;;2.00;2.00;;;;;27.57;43.23;100698.75;5037799;28;45377;-63
2022/07/25 10:23:45;;;;;;;;;5.75;3.00;;;;;27.39;43.40;100702.97;5036750;28;45480;-64
2022/07/25 10:26:14;;;;;;;;;3.20;3.20;;;;;27.27;43.95;100710.81;5037309;28;46468;-61
2022/07/25 10:28:48;;;;;;;;;5.80;4.00;;;;;27.11;44.00;100708.31;5037626;28;45236;-65
2022/07/25 10:31:21;;;;;;;;;3.60;2.20;;;;;26.93;44.38;100709.50;5037588;28;45382;-66
2022/07/25 10:33:57;;;;;;;;;2.00;2.00;;;;;26.92;44.84;100713.28;5036312;28;45506;-65
2022/07/25 10:36:28;;;;;;;;;1.60;1.60;;;;;26.86;44.83;100722.25;5035998;28;46187;-60
2022/07/25 10:38:59;;;;;;;;;1.60;1.40;;;;;26.85;44.62;100725.16;5037480;28;45443;-66
2022/07/25 10:41:26;;;;;;;;;2.00;2.00;;;;;26.97;45.06;100727.22;5037194;28;45448;-66
2022/07/25 10:43:56;;;;;;;;;3.00;3.00;;;;;27.03;44.72;100715.56;5053501;28;45676;-65
2022/07/25 10:46:25;;;;;;;;;3.80;2.60;;;;;27.12;44.63;100731.84;5037471;28;46961;-67
2022/07/25 10:49:00;;;;;;;;;2.40;2.00;;;;;27.13;44.44;100711.69;5036369;28;45340;-66
2022/07/25 10:51:31;;;;;;;;;6.00;3.40;;;;;27.25;44.95;100718.38;5037448;28;45239;-65
2022/07/25 10:53:56;;;;;;;;;4.00;4.00;;;;;27.33;44.23;100720.97;5037083;28;45308;-65
2022/07/25 10:56:24;;;;;;;;;2.00;2.00;;;;;27.22;44.40;100733.25;5036715;28;45551;-64
2022/07/25 10:58:54;;;;;;;;;5.00;4.20;;;;;27.11;44.75;100728.28;5052351;28;45349;-66
2022/07/25 11:01:31;;;;;;;;;4.00;4.00;;;;;26.88;44.84;100736.53;5018963;28;45323;-65
2022/07/25 11:04:01;;;;;;;;;3.75;2.25;;;;;26.74;45.53;100731.94;5037397;28;45443;-62
2022/07/25 11:06:38;;;;;;;;;2.00;2.00;;;;;26.61;45.30;100746.22;5037039;28;45493;-67
2022/07/25 11:09:13;;;;;;;;;2.60;2.60;;;;;26.54;46.12;100742.53;5036402;28;45410;-66
2022/07/25 11:11:46;;;;;;;;;4.20;3.00;;;;;26.55;46.08;100737.91;5037254;28;45416;-65
2022/07/25 11:14:22;;;;;;;;;5.00;4.00;;;;;26.79;45.36;100745.00;5036650;28;45455;-63
2022/07/25 11:16:49;;;;;;;;;3.20;3.20;;;;;26.79;45.05;100737.66;5037044;28;45438;-66
2022/07/25 11:19:23;;;;;;;;;3.20;2.80;;;;;26.92;45.36;100746.03;5041611;28;45453;-66
2022/07/25 11:21:56;;;;;;;;;4.00;4.00;;;;;26.95;44.83;100731.16;5057402;28;45264;-66